Time;durP1;ratioP1;P1;durP2;ratioP2;P2;SDS_P1;SDS_P2;PMS_P1;PMS_P2;Temp;Humidity;BMP_temperature;BMP_pressure;BME280_temperature;BME280_humidity;BME280_pressure;Samples;Min_cycle;Max_cycle;Signal;HPM_P1;HPM_P2
2023/06/07 07:03:40;;;;;;;17.60;6.40;;;;;;;22.75;36.19;99964.34;80473;1304;3013529;-66
2023/06/07 07:06:16;;;;;;;22.20;7.50;;;;;;;22.85;35.87;99970.65;78088;1301;3052223;-66
2023/06/07 07:08:50;;;;;;;27.20;9.00;;;;;;;22.86;35.80;99966.83;79267;1307;3013180;-66
2023/06/07 07:12:24;;;;;;;29.30;8.10;;;;;;;22.93;36.17;99961.00;78050;1303;3052365;-66
2023/06/07 07:15:03;;;;;;;10.20;3.10;;;;;;;22.91;34.38;99963.30;77972;1307;3052758;-67
2023/06/07 07:17:55;;;;;;;11.30;4.00;;;;;;;22.80;33.71;99963.63;76199;1300;3069215;-65
2023/06/07 07:20:41;;;;;;;11.40;4.90;;;;;;;22.83;33.33;99969.96;78171;1303;3049766;-65
2023/06/07 07:23:12;;;;;;;9.40;3.10;;;;;;;23.03;33.44;99966.63;78191;1299;3055772;-66
2023/06/07 07:25:43;;;;;;;11.30;3.20;;;;;;;23.18;33.15;99967.61;79556;1303;3012879;-65
2023/06/07 07:28:31;;;;;;;8.30;2.60;;;;;;;23.26;32.66;99967.44;78366;1299;3049861;-65
2023/06/07 07:31:30;;;;;;;11.50;3.00;;;;;;;23.36;32.70;99958.74;78363;1301;3053533;-65
2023/06/07 07:34:01;;;;;;;8.50;2.80;;;;;;;23.42;32.52;99958.02;79546;1301;3011619;-67
2023/06/07 07:37:38;;;;;;;4.50;2.40;;;;;;;23.51;32.74;99961.42;78408;1300;3068778;-65
2023/06/07 07:40:17;;;;;;;7.40;2.80;;;;;;;23.61;33.24;99961.58;78594;1300;3049875;-66
2023/06/07 07:43:04;;;;;;;5.90;2.60;;;;;;;23.69;33.27;99958.56;79629;1298;3011659;-65
2023/06/07 07:46:27;;;;;;;4.10;2.20;;;;;;;23.79;33.34;99960.58;78479;1301;3050106;-66
2023/06/07 07:49:07;;;;;;;8.00;2.70;;;;;;;23.81;32.95;99958.87;78462;1296;3052623;-66
2023/06/07 07:51:54;;;;;;;6.40;2.40;;;;;;;23.82;32.70;99959.81;78308;1298;3049956;-65
2023/06/07 07:54:27;;;;;;;3.00;1.80;;;;;;;23.86;32.63;99959.11;78521;1300;3053472;-64
2023/06/07 08:01:02;;;;;;;5.30;1.80;;;;;;;24.08;32.79;99953.80;78170;1304;3070758;-65
2023/06/07 08:03:55;;;;;;;7.40;2.40;;;;;;;24.21;32.41;99950.69;79259;1304;3012293;-65
2023/06/07 08:06:49;;;;;;;7.70;2.00;;;;;;;24.30;32.60;99954.80;78109;1310;3056587;-64
2023/06/07 08:09:34;;;;;;;3.50;1.80;;;;;;;24.36;32.03;99951.17;78149;1302;3048409;-64
2023/06/07 08:12:13;;;;;;;3.30;1.80;;;;;;;24.46;32.28;99950.94;77966;1302;3054223;-65
2023/06/07 08:14:48;;;;;;;7.90;1.80;;;;;;;24.59;32.28;99946.95;77986;1305;3050240;-66
2023/06/07 08:17:22;;;;;;;7.30;2.10;;;;;;;24.60;31.09;99951.50;79336;1302;3011604;-65
2023/06/07 08:19:51;;;;;;;6.30;1.90;;;;;;;24.57;30.33;99952.20;78037;1307;3052410;-64
2023/06/07 08:22:20;;;;;;;4.80;2.40;;;;;;;24.62;29.68;99952.39;79423;1302;3011501;-64
2023/06/07 08:24:50;;;;;;;4.30;2.00;;;;;;;24.64;29.66;99949.85;78627;1306;3012151;-64
2023/06/07 08:27:17;;;;;;;7.10;1.90;;;;;;;24.73;30.30;99952.40;79281;1304;3013512;-66
2023/06/07 08:29:45;;;;;;;5.00;2.00;;;;;;;24.86;30.70;99949.53;79435;1301;3011702;-66
2023/06/07 08:32:13;;;;;;;4.20;2.20;;;;;;;25.03;30.96;99952.81;78163;1301;3050168;-65
2023/06/07 08:34:41;;;;;;;9.80;1.90;;;;;;;25.05;31.02;99957.20;81910;1301;3012455;-66
2023/06/07 08:37:09;;;;;;;6.20;2.00;;;;;;;24.96;29.92;99951.04;81888;1297;3011332;-66
2023/06/07 08:39:39;;;;;;;5.80;2.00;;;;;;;25.17;30.11;99947.80;80713;1297;3049291;-66
2023/06/07 08:42:06;;;;;;;4.30;1.80;;;;;;;25.35;30.14;99943.66;81944;1299;3011376;-68
2023/06/07 08:44:34;;;;;;;2.70;1.40;;;;;;;25.53;30.42;99943.27;82023;1295;3011411;-66
2023/06/07 08:47:02;;;;;;;4.70;1.70;;;;;;;25.69;29.85;99942.84;80716;1296;3049854;-66
2023/06/07 08:49:33;;;;;;;2.80;1.50;;;;;;;25.88;29.76;99945.48;81952;1298;3012757;-67
2023/06/07 08:52:05;;;;;;;7.20;2.20;;;;;;;25.92;28.90;99943.27;80693;1295;3068276;-67
2023/06/07 08:54:32;;;;;;;3.20;1.60;;;;;;;25.92;28.42;99942.19;81832;1300;3011148;-66
2023/06/07 08:57:01;;;;;;;4.70;1.80;;;;;;;26.06;28.69;99943.94;80602;1298;3026473;-66
2023/06/07 08:59:28;;;;;;;6.90;1.60;;;;;;;26.10;28.01;99945.09;82014;1296;3013208;-66
2023/06/07 09:01:59;;;;;;;6.70;2.00;;;;;;;25.97;27.92;99945.85;80709;1298;3048925;-66
2023/06/07 09:04:38;;;;;;;3.20;1.60;;;;;;;25.86;27.53;99943.84;80768;1300;3052122;-66
2023/06/07 09:07:11;;;;;;;6.90;1.70;;;;;;;26.13;27.95;99944.05;81300;1299;3011221;-67
2023/06/07 09:09:43;;;;;;;6.50;1.80;;;;;;;26.40;28.00;99948.15;81972;1300;3013186;-67
2023/06/07 09:12:12;;;;;;;3.90;1.40;;;;;;;26.41;27.24;99951.46;80670;1299;3069056;-67
2023/06/07 09:14:40;;;;;;;6.30;1.80;;;;;;;26.55;26.95;99949.46;81943;1296;3012686;-66
2023/06/07 09:17:07;;;;;;;5.00;1.30;;;;;;;26.52;27.22;99947.65;81994;1296;3011095;-66
2023/06/07 09:19:36;;;;;;;3.90;1.50;;;;;;;26.67;27.30;99943.11;80652;1298;3053371;-66
2023/06/07 09:22:04;;;;;;;4.40;1.30;;;;;;;26.86;27.25;99945.52;82007;1296;3012440;-66
2023/06/07 09:24:33;;;;;;;6.10;1.80;;;;;;;26.98;27.33;99944.83;80679;1297;3027100;-66
2023/06/07 09:27:02;;;;;;;4.00;1.80;;;;;;;26.96;26.26;99950.20;81904;1302;3012647;-65
2023/06/07 09:29:38;;;;;;;8.40;1.90;;;;;;;26.77;26.46;99941.45;80674;1297;3050195;-67
2023/06/07 09:32:17;;;;;;;4.10;2.00;;;;;;;26.65;26.93;99945.42;80665;1298;3057794;-67
2023/06/07 09:34:45;;;;;;;5.10;1.70;;;;;;;26.84;27.20;99938.64;80772;1295;3048856;-65
2023/06/07 09:37:13;;;;;;;4.30;1.50;;;;;;;27.23;27.11;99937.79;81912;1296;3011444;-65
2023/06/07 09:39:40;;;;;;;2.90;1.50;;;;;;;27.28;27.03;99934.64;81992;1297;3011125;-66
2023/06/07 09:42:17;;;;;;;3.10;1.90;;;;;;;27.39;27.22;99934.56;80679;1295;3052004;-66
2023/06/07 09:44:46;;;;;;;3.40;1.60;;;;;;;27.48;26.18;99930.20;80593;1300;3068232;-64
2023/06/07 09:47:20;;;;;;;3.40;1.70;;;;;;;27.50;26.06;99932.33;81875;1297;3011192;-63
2023/06/07 09:49:48;;;;;;;5.30;1.70;;;;;;;27.55;25.73;99928.39;80622;1297;3050367;-63
2023/06/07 09:52:15;;;;;;;3.60;1.50;;;;;;;27.66;25.74;99932.61;81877;1297;3013141;-62
2023/06/07 09:54:43;;;;;;;3.60;1.60;;;;;;;27.85;26.18;99929.40;81849;1298;3011556;-62
2023/06/07 09:57:27;;;;;;;2.70;1.40;;;;;;;28.06;26.19;99924.56;80622;1298;3052940;-62
2023/06/07 10:00:14;;;;;;;5.00;1.60;;;;;;;28.11;25.70;99926.27;80619;1297;3068302;-64
2023/06/07 10:02:43;;;;;;;6.60;1.80;;;;;;;28.04;25.47;99925.82;80595;1297;3051033;-65
2023/06/07 10:05:12;;;;;;;2.20;1.60;;;;;;;28.09;25.56;99922.55;81859;1297;3017995;-63
2023/06/07 10:07:52;;;;;;;5.70;1.40;;;;;;;28.34;25.58;99919.02;81349;1297;3011185;-64
2023/06/07 10:10:24;;;;;;;4.80;1.80;;;;;;;28.25;25.16;99919.29;80523;1299;3053036;-62
2023/06/07 10:12:51;;;;;;;3.30;1.60;;;;;;;27.80;25.39;99921.69;81699;1297;3011109;-63
2023/06/07 10:15:25;;;;;;;2.70;1.40;;;;;;;27.74;25.12;99918.64;80652;1298;3027449;-63
2023/06/07 10:18:05;;;;;;;2.80;1.70;;;;;;;27.91;25.05;99920.51;81439;1298;3011081;-63
2023/06/07 10:20:35;;;;;;;4.80;1.70;;;;;;;27.97;25.15;99916.29;80651;1298;3053860;-65
2023/06/07 10:23:26;;;;;;;3.30;1.80;;;;;;;27.96;24.02;99916.23;81793;1298;3012860;-64
2023/06/07 10:26:04;;;;;;;3.60;1.80;;;;;;;27.87;23.41;99917.56;80636;1297;3050614;-64
2023/06/07 10:28:39;;;;;;;3.00;1.40;;;;;;;27.78;23.04;99904.71;80638;1297;3056710;-63
2023/06/07 10:31:10;;;;;;;3.60;1.70;;;;;;;27.72;23.10;99903.21;81407;1295;3011420;-64
2023/06/07 10:33:37;;;;;;;3.20;1.70;;;;;;;27.70;23.03;99901.58;81842;1297;3011266;-64
2023/06/07 10:36:08;;;;;;;3.00;2.10;;;;;;;27.60;23.43;99902.41;80622;1297;3027114;-65
2023/06/07 10:38:34;;;;;;;3.40;2.00;;;;;;;27.56;22.97;99902.20;81878;1296;3011243;-64
2023/06/07 10:41:02;;;;;;;4.00;2.20;;;;;;;27.53;22.75;99902.33;81887;1298;3011257;-65
2023/06/07 10:43:30;;;;;;;6.60;2.20;;;;;;;27.57;22.98;99897.05;80605;1296;3067701;-65
2023/06/07 10:46:25;;;;;;;5.60;1.70;;;;;;;27.73;22.55;99898.64;81803;1297;3013398;-64
2023/06/07 10:48:54;;;;;;;4.00;1.60;;;;;;;27.78;22.54;99898.39;80601;1298;3048956;-65
2023/06/07 10:52:02;;;;;;;3.40;1.80;;;;;;;27.77;22.50;99895.69;81868;1298;3011173;-64
2023/06/07 10:54:31;;;;;;;5.60;1.80;;;;;;;27.77;22.62;99897.44;80740;1298;3049235;-63
2023/06/07 10:56:59;;;;;;;4.60;2.20;;;;;;;27.93;22.92;99895.02;81964;1297;3013133;-65
2023/06/07 10:59:26;;;;;;;5.40;1.60;;;;;;;27.97;23.15;99895.89;81973;1295;3011522;-64
2023/06/07 11:02:23;;;;;;;8.20;2.30;;;;;;;28.21;23.05;99892.38;80657;1296;3049747;-65
2023/06/07 11:04:55;;;;;;;3.20;1.70;;;;;;;28.47;22.56;99890.36;80619;1298;3055514;-64
2023/06/07 11:07:23;;;;;;;3.50;2.10;;;;;;;28.45;22.81;99890.02;81934;1296;3011137;-64
2023/06/07 11:10:16;;;;;;;4.80;1.90;;;;;;;28.13;22.86;99890.42;80663;1297;3053582;-64
2023/06/07 11:12:45;;;;;;;3.50;1.60;;;;;;;27.83;23.03;99890.42;80569;1296;3049568;-64
2023/06/07 11:15:17;;;;;;;5.60;1.80;;;;;;;27.64;23.46;99889.52;81987;1295;3012543;-64
2023/06/07 11:17:55;;;;;;;3.80;1.90;;;;;;;27.51;23.67;99891.35;80741;1295;3068302;-66
2023/06/07 11:20:38;;;;;;;5.00;2.30;;;;;;;27.50;23.89;99891.52;80658;1295;3051589;-66
2023/06/07 11:23:19;;;;;;;4.80;2.50;;;;;;;27.55;23.81;99888.16;80718;1295;3056876;-64
2023/06/07 11:25:48;;;;;;;2.40;1.90;;;;;;;27.85;24.11;99886.83;80747;1295;3048582;-64
2023/06/07 11:28:15;;;;;;;3.90;1.80;;;;;;;28.19;23.61;99883.14;81953;1295;3011192;-65
2023/06/07 11:30:45;;;;;;;5.80;2.00;;;;;;;28.43;22.94;99879.69;81460;1295;3011234;-66
2023/06/07 11:33:15;;;;;;;3.60;1.80;;;;;;;28.70;22.64;99876.05;81793;1300;3018470;-62
2023/06/07 11:35:44;;;;;;;7.20;2.10;;;;;;;28.80;22.89;99877.60;81463;1295;3011248;-63
2023/06/07 11:38:10;;;;;;;6.50;1.90;;;;;;;28.73;21.78;99875.79;82027;1300;3018251;-65
2023/06/07 11:40:37;;;;;;;3.20;1.90;;;;;;;28.76;21.89;99876.81;81926;1296;3011327;-62
2023/06/07 11:43:08;;;;;;;5.80;2.00;;;;;;;28.91;21.83;99874.23;80723;1296;3026281;-61
2023/06/07 11:48:28;;;;;;;4.60;1.90;;;;;;;29.26;22.01;99871.33;80065;1299;3012622;-65
2023/06/07 11:50:55;;;;;;;4.70;1.90;;;;;;;29.37;22.18;99874.42;78895;1301;3014962;-63
2023/06/07 11:53:23;;;;;;;4.70;2.40;;;;;;;29.61;21.65;99869.77;78865;1304;3011898;-65
2023/06/07 11:55:51;;;;;;;2.90;2.00;;;;;;;29.59;21.44;99863.66;77980;1300;3053501;-64
2023/06/07 11:58:18;;;;;;;6.60;1.70;;;;;;;29.64;21.30;99866.86;79252;1301;3018592;-66
2023/06/07 12:00:44;;;;;;;3.60;1.90;;;;;;;29.79;21.21;99864.98;77200;1300;3013545;-65
2023/06/07 12:03:13;;;;;;;2.40;1.80;;;;;;;29.92;21.20;99863.79;78105;1301;3028518;-66
2023/06/07 12:05:40;;;;;;;4.60;2.10;;;;;;;29.99;20.94;99859.66;79418;1300;3011810;-65
2023/06/07 12:08:10;;;;;;;4.30;2.20;;;;;;;30.01;21.19;99858.36;79240;1298;3012006;-65
2023/06/07 12:10:38;;;;;;;4.90;2.10;;;;;;;30.22;21.15;99854.82;77973;1298;3053623;-65
2023/06/07 12:13:09;;;;;;;8.90;2.50;;;;;;;30.41;20.96;99857.59;79195;1298;3011953;-65
2023/06/07 12:15:53;;;;;;;5.50;2.40;;;;;;;30.56;20.50;99854.11;77979;1301;3056507;-64
2023/06/07 12:18:29;;;;;;;4.10;1.70;;;;;;;30.64;20.69;99851.77;77957;1301;3050605;-65
2023/06/07 12:21:09;;;;;;;4.60;2.20;;;;;;;30.74;20.62;99847.38;79242;1303;3011884;-65
2023/06/07 12:23:38;;;;;;;4.60;2.00;;;;;;;30.77;20.59;99851.28;78015;1301;3050990;-65
2023/06/07 12:26:09;;;;;;;7.80;2.60;;;;;;;30.81;20.76;99851.30;79239;1300;3013008;-65
2023/06/07 12:28:40;;;;;;;3.60;2.40;;;;;;;30.84;20.52;99846.19;78009;1297;3068774;-65
2023/06/07 12:31:17;;;;;;;5.40;2.50;;;;;;;30.73;20.65;99848.69;79317;1297;3013181;-64
2023/06/07 12:34:07;;;;;;;3.80;2.10;;;;;;;30.83;20.30;99847.13;77991;1296;3048809;-65
2023/06/07 12:36:38;;;;;;;4.30;2.40;;;;;;;30.52;20.18;99837.84;78302;1302;3054025;-62
2023/06/07 12:39:11;;;;;;;5.70;2.50;;;;;;;30.51;20.40;99834.92;79517;1298;3013222;-66
2023/06/07 12:41:40;;;;;;;8.90;2.70;;;;;;;30.75;20.48;99831.07;78185;1300;3053228;-64
2023/06/07 12:44:10;;;;;;;6.10;2.60;;;;;;;30.74;20.73;99829.36;79323;1300;3018539;-64
2023/06/07 12:46:40;;;;;;;7.40;2.40;;;;;;;30.84;20.53;99825.34;78079;1300;3051317;-61
2023/06/07 12:49:07;;;;;;;6.00;2.30;;;;;;;30.90;19.98;99821.09;79254;1298;3013552;-61
2023/06/07 12:51:33;;;;;;;5.10;2.30;;;;;;;31.01;19.81;99823.04;79230;1300;3013345;-62
2023/06/07 12:54:02;;;;;;;4.50;2.10;;;;;;;31.08;19.62;99819.88;78098;1300;3027578;-64
2023/06/07 12:56:48;;;;;;;5.20;2.40;;;;;;;31.11;19.64;99818.07;77956;1298;3053682;-62
2023/06/07 12:59:15;;;;;;;6.60;2.90;;;;;;;31.05;19.61;99813.62;79165;1300;3013551;-61
2023/06/07 13:01:42;;;;;;;4.20;2.20;;;;;;;30.89;19.72;99810.38;79240;1301;3012867;-64
2023/06/07 13:04:10;;;;;;;3.90;2.20;;;;;;;31.04;19.48;99813.02;77971;1297;3028274;-63
2023/06/07 13:06:37;;;;;;;8.20;2.50;;;;;;;30.87;20.06;99811.39;79215;1295;3014641;-65
2023/06/07 13:09:05;;;;;;;4.50;2.30;;;;;;;30.49;20.56;99814.75;79249;1297;3011657;-62
2023/06/07 13:11:34;;;;;;;4.50;2.80;;;;;;;30.34;20.73;99811.63;78216;1297;3051860;-63
2023/06/07 13:14:00;;;;;;;5.20;2.60;;;;;;;30.41;20.86;99809.77;79350;1300;3013756;-66
2023/06/07 13:16:28;;;;;;;5.20;2.40;;;;;;;30.69;20.43;99809.08;79172;1301;3012705;-64
2023/06/07 13:18:57;;;;;;;5.20;2.60;;;;;;;30.94;20.25;99798.17;77996;1302;3057096;-63
2023/06/07 13:21:23;;;;;;;5.90;2.70;;;;;;;31.12;20.43;99798.14;79359;1298;3013502;-64
2023/06/07 13:23:50;;;;;;;6.30;2.80;;;;;;;31.25;20.45;99800.46;79205;1300;3013526;-63
2023/06/07 13:26:18;;;;;;;5.30;2.60;;;;;;;31.35;20.46;99796.92;77992;1303;3053226;-64
2023/06/07 13:28:46;;;;;;;5.70;2.30;;;;;;;31.45;20.43;99795.67;79245;1300;3018659;-62
2023/06/07 13:31:13;;;;;;;7.90;2.50;;;;;;;31.40;20.37;99797.05;79204;1300;3012583;-64
2023/06/07 13:33:42;;;;;;;6.30;2.50;;;;;;;31.39;20.22;99797.39;78034;1301;3056544;-63
2023/06/07 13:36:08;;;;;;;9.30;3.10;;;;;;;31.44;20.34;99794.71;79359;1300;3013574;-63
2023/06/07 13:38:35;;;;;;;13.10;2.40;;;;;;;31.48;20.51;99788.70;79231;1297;3011537;-65
2023/06/07 13:41:03;;;;;;;6.50;2.60;;;;;;;31.54;20.57;99788.19;78116;1301;3028851;-63
2023/06/07 13:43:30;;;;;;;9.30;2.40;;;;;;;31.61;20.48;99788.11;79401;1302;3014787;-65
2023/06/07 13:45:57;;;;;;;10.00;2.60;;;;;;;31.69;20.27;99791.63;79354;1297;3012423;-62
2023/06/07 13:48:25;;;;;;;8.80;2.70;;;;;;;31.75;20.24;99793.27;77966;1301;3056283;-64
2023/06/07 13:50:52;;;;;;;7.10;2.40;;;;;;;31.47;20.27;99790.05;79211;1295;3013673;-61
2023/06/07 13:53:18;;;;;;;8.80;2.90;;;;;;;31.21;20.66;99790.55;79185;1297;3012328;-63
2023/06/07 13:55:47;;;;;;;10.60;2.80;;;;;;;31.30;20.68;99791.20;77994;1301;3027984;-64
2023/06/07 13:58:13;;;;;;;5.00;2.70;;;;;;;31.49;20.44;99792.37;79290;1301;3014677;-64
2023/06/07 14:00:41;;;;;;;13.50;2.70;;;;;;;31.55;20.27;99798.21;79248;1295;3013230;-63
2023/06/07 14:03:08;;;;;;;9.20;3.00;;;;;;;31.69;20.04;99797.71;78181;1301;3056900;-61
2023/06/07 14:05:35;;;;;;;11.40;2.60;;;;;;;31.79;19.90;99795.30;79563;1298;3020454;-63
2023/06/07 14:08:02;;;;;;;6.90;2.80;;;;;;;31.91;20.16;99795.48;79231;1297;3011655;-62
2023/06/07 14:10:31;;;;;;;6.80;2.30;;;;;;;32.02;20.10;99797.50;78203;1301;3052098;-63
2023/06/07 14:12:58;;;;;;;4.50;2.80;;;;;;;32.01;19.71;99799.98;79280;1303;3013243;-62
2023/06/07 14:15:30;;;;;;;6.20;2.80;;;;;;;32.09;19.67;99799.00;78853;1298;3011646;-65
2023/06/07 14:17:57;;;;;;;6.80;2.70;;;;;;;32.18;19.94;99800.44;79277;1297;3015349;-65
2023/06/07 14:20:24;;;;;;;9.20;2.80;;;;;;;32.11;19.27;99801.77;79566;1295;3011629;-65
2023/06/07 14:22:52;;;;;;;4.60;2.90;;;;;;;32.05;19.02;99799.11;78060;1297;3053846;-64
2023/06/07 14:25:19;;;;;;;7.60;2.60;;;;;;;32.06;19.25;99796.33;79210;1302;3013271;-62
2023/06/07 14:27:46;;;;;;;7.10;2.90;;;;;;;31.98;19.01;99793.58;79309;1303;3013128;-63
2023/06/07 14:30:15;;;;;;;15.30;2.60;;;;;;;31.90;18.95;99793.67;78041;1302;3026179;-63
2023/06/07 14:32:43;;;;;;;4.80;2.30;;;;;;;31.82;19.35;99789.89;79397;1296;3013589;-63
2023/06/07 14:35:09;;;;;;;7.00;2.80;;;;;;;31.81;19.61;99792.59;79220;1296;3011636;-63
2023/06/07 14:37:37;;;;;;;7.90;3.00;;;;;;;31.91;19.45;99793.06;78027;1298;3053788;-62
2023/06/07 14:40:05;;;;;;;5.70;2.80;;;;;;;31.94;19.63;99791.53;79356;1301;3012877;-62
2023/06/07 14:42:33;;;;;;;6.50;2.60;;;;;;;31.93;19.41;99793.84;79335;1296;3011922;-63
2023/06/07 14:45:02;;;;;;;9.20;2.80;;;;;;;32.06;19.30;99792.73;78069;1298;3069885;-61
2023/06/07 14:47:29;;;;;;;10.40;2.70;;;;;;;32.18;19.33;99793.48;79419;1296;3013693;-64
2023/06/07 14:49:56;;;;;;;6.80;2.80;;;;;;;32.11;19.37;99792.01;79254;1297;3013584;-64
2023/06/07 14:52:24;;;;;;;5.70;2.70;;;;;;;32.17;19.20;99787.04;78084;1301;3028583;-62
2023/06/07 14:54:50;;;;;;;6.20;2.70;;;;;;;32.29;18.90;99787.05;79257;1303;3012915;-64
2023/06/07 14:57:17;;;;;;;7.50;2.30;;;;;;;32.18;18.86;99786.17;79387;1295;3011823;-62
2023/06/07 14:59:45;;;;;;;8.20;2.90;;;;;;;31.96;19.17;99785.33;78014;1297;3026480;-63
2023/06/07 15:02:13;;;;;;;8.70;2.70;;;;;;;31.78;19.40;99783.23;79240;1301;3013176;-65
2023/06/07 15:04:40;;;;;;;5.70;2.80;;;;;;;32.01;19.44;99784.30;79275;1296;3012104;-64
2023/06/07 15:07:07;;;;;;;5.90;2.90;;;;;;;32.10;19.36;99782.02;78043;1297;3053594;-62
2023/06/07 15:09:35;;;;;;;7.90;2.80;;;;;;;32.19;19.38;99781.88;79236;1302;3013229;-64
2023/06/07 15:12:03;;;;;;;7.60;2.70;;;;;;;32.35;19.41;99780.74;79465;1300;3011527;-63
2023/06/07 15:14:32;;;;;;;3.80;2.40;;;;;;;32.29;19.41;99781.95;77940;1303;3068451;-63
2023/06/07 15:17:00;;;;;;;5.40;2.80;;;;;;;32.27;19.88;99782.81;79322;1302;3012864;-63
2023/06/07 15:19:28;;;;;;;11.20;4.10;;;;;;;32.20;19.60;99781.96;79320;1297;3011587;-63
2023/06/07 15:21:57;;;;;;;8.70;3.90;;;;;;;32.02;19.67;99784.45;77982;1296;3053927;-63
2023/06/07 15:24:24;;;;;;;14.80;7.20;;;;;;;31.73;19.44;99784.40;79253;1302;3014547;-65
2023/06/07 15:26:50;;;;;;;9.10;5.30;;;;;;;31.56;20.01;99778.06;79186;1297;3012794;-63
2023/06/07 15:29:18;;;;;;;8.00;4.30;;;;;;;31.55;20.17;99775.11;78058;1301;3068151;-63
2023/06/07 15:31:46;;;;;;;6.10;3.60;;;;;;;31.36;20.76;99772.98;79326;1297;3013133;-63
2023/06/07 15:34:14;;;;;;;5.10;2.70;;;;;;;31.39;21.04;99776.39;79283;1295;3011825;-63
2023/06/07 15:36:41;;;;;;;5.10;2.40;;;;;;;31.28;21.24;99772.55;78018;1297;3052463;-62
2023/06/07 15:39:08;;;;;;;5.20;1.80;;;;;;;31.20;21.19;99775.33;79169;1301;3013388;-63
2023/06/07 15:41:35;;;;;;;4.80;2.30;;;;;;;31.06;21.26;99774.65;79233;1301;3011311;-62
2023/06/07 15:44:03;;;;;;;10.20;3.50;;;;;;;30.56;21.79;99779.13;77949;1302;3029706;-63
2023/06/07 15:46:30;;;;;;;9.90;2.70;;;;;;;30.24;22.72;99779.32;79195;1301;3013181;-64
2023/06/07 15:48:56;;;;;;;3.20;2.10;;;;;;;30.41;22.66;99779.79;79174;1296;3011754;-62
2023/06/07 15:51:24;;;;;;;3.30;2.30;;;;;;;30.40;22.86;99780.09;77965;1300;3028761;-60
2023/06/07 15:53:51;;;;;;;8.60;2.50;;;;;;;30.20;22.90;99782.03;79376;1301;3018436;-63
2023/06/07 15:56:17;;;;;;;8.10;2.10;;;;;;;30.10;23.20;99782.04;79105;1301;3011525;-62
2023/06/07 15:58:45;;;;;;;4.90;2.10;;;;;;;30.10;23.24;99774.27;77978;1301;3026866;-59
2023/06/07 16:01:12;;;;;;;4.90;2.20;;;;;;;30.09;23.19;99777.46;79215;1301;3012946;-62
2023/06/07 16:03:40;;;;;;;4.80;2.20;;;;;;;30.15;23.10;99775.64;79195;1294;3013658;-62
2023/06/07 16:06:08;;;;;;;4.60;2.00;;;;;;;30.05;23.04;99774.05;78159;1300;3052425;-63
2023/06/07 16:08:35;;;;;;;5.70;2.50;;;;;;;30.00;23.11;99773.86;79370;1299;3012950;-63
2023/06/07 16:11:02;;;;;;;4.20;2.20;;;;;;;29.92;22.82;99774.01;79422;1307;3011700;-63
2023/06/07 16:13:30;;;;;;;5.80;3.20;;;;;;;29.82;23.14;99773.42;78208;1300;3026249;-63
2023/06/07 16:15:57;;;;;;;6.60;3.00;;;;;;;29.74;23.31;99772.98;79508;1294;3012867;-64
2023/06/07 16:18:24;;;;;;;9.30;4.40;;;;;;;29.45;23.52;99771.73;79248;1296;3011847;-64
2023/06/07 16:20:52;;;;;;;7.70;4.30;;;;;;;29.52;23.64;99772.10;78116;1297;3054448;-62
2023/06/07 16:23:19;;;;;;;7.40;3.50;;;;;;;29.43;23.71;99774.21;79338;1300;3013136;-63
2023/06/07 16:25:46;;;;;;;9.30;3.90;;;;;;;29.29;24.05;99772.19;79320;1298;3011669;-64
2023/06/07 16:28:15;;;;;;;17.80;7.40;;;;;;;28.98;24.39;99776.55;78105;1298;3026741;-61
2023/06/07 16:30:42;;;;;;;12.30;5.80;;;;;;;28.88;24.36;99773.55;79318;1295;3011917;-63
2023/06/07 16:33:09;;;;;;;8.10;3.90;;;;;;;28.48;24.41;99773.67;79342;1295;3011907;-62
2023/06/07 16:35:40;;;;;;;7.20;3.80;;;;;;;28.10;25.32;99774.98;78091;1296;3054153;-60
2023/06/07 16:38:07;;;;;;;5.90;3.00;;;;;;;28.06;25.27;99776.48;79744;1295;3011636;-62
2023/06/07 16:40:35;;;;;;;4.20;2.70;;;;;;;27.78;25.50;99779.05;78156;1300;3026351;-61
2023/06/07 16:43:02;;;;;;;4.70;2.30;;;;;;;27.63;25.73;99778.54;79244;1299;3013009;-59
2023/06/07 16:45:28;;;;;;;3.60;2.20;;;;;;;27.46;25.73;99778.02;79267;1299;3013285;-61
2023/06/07 16:47:57;;;;;;;3.30;1.50;;;;;;;27.49;25.80;99773.08;78133;1300;3027717;-62
2023/06/07 16:50:24;;;;;;;7.50;2.50;;;;;;;27.35;25.95;99770.48;79373;1295;3013072;-60
2023/06/07 16:52:51;;;;;;;6.70;2.50;;;;;;;27.14;26.12;99769.13;79280;1297;3011775;-62
2023/06/07 16:55:20;;;;;;;7.20;2.00;;;;;;;26.93;26.63;99771.46;78105;1300;3052851;-60
2023/06/07 16:57:46;;;;;;;2.90;1.60;;;;;;;26.82;26.67;99775.00;79376;1300;3013441;-64
2023/06/07 17:00:14;;;;;;;4.80;2.00;;;;;;;26.64;26.84;99773.22;79173;1294;3011593;-64
2023/06/07 17:02:42;;;;;;;11.60;2.20;;;;;;;26.49;27.20;99775.41;78060;1299;3057027;-63
2023/06/07 17:05:08;;;;;;;7.80;2.50;;;;;;;26.33;27.45;99773.37;79224;1298;3013083;-63
2023/06/07 17:07:35;;;;;;;9.70;2.20;;;;;;;26.21;27.46;99775.38;79284;1296;3013247;-62
2023/06/07 17:10:04;;;;;;;5.50;2.20;;;;;;;26.11;27.56;99773.92;78034;1300;3028051;-63
2023/06/07 17:12:31;;;;;;;6.40;2.20;;;;;;;26.10;27.60;99771.58;79347;1298;3012993;-61
2023/06/07 17:14:58;;;;;;;4.70;2.10;;;;;;;26.02;27.74;99767.07;79233;1295;3011902;-63
2023/06/07 17:17:26;;;;;;;5.00;2.50;;;;;;;25.94;27.77;99766.24;78249;1299;3056016;-62
2023/06/07 17:19:53;;;;;;;4.60;1.90;;;;;;;25.79;28.23;99770.05;79349;1294;3013419;-64
2023/06/07 17:22:19;;;;;;;2.70;1.90;;;;;;;25.69;28.24;99769.66;79410;1301;3011678;-64
2023/06/07 17:24:47;;;;;;;8.10;2.30;;;;;;;25.58;28.40;99772.42;78181;1298;3028763;-61
2023/06/07 17:27:14;;;;;;;5.20;1.90;;;;;;;25.37;28.79;99774.98;79307;1298;3012960;-62
2023/06/07 17:29:41;;;;;;;9.00;2.30;;;;;;;25.24;29.14;99773.68;79346;1300;3011330;-64
2023/06/07 17:32:09;;;;;;;6.20;2.00;;;;;;;25.14;29.29;99774.43;78111;1298;3028690;-63
2023/06/07 17:34:36;;;;;;;6.50;2.60;;;;;;;25.03;29.57;99772.45;79505;1295;3013054;-64
2023/06/07 17:37:03;;;;;;;8.10;2.50;;;;;;;24.83;29.82;99772.14;79387;1295;3012777;-64
2023/06/07 17:39:32;;;;;;;7.80;3.20;;;;;;;24.75;29.86;99771.41;78603;1298;3052375;-62
2023/06/07 17:41:58;;;;;;;10.90;3.90;;;;;;;24.61;30.46;99771.68;79357;1298;3013855;-61
2023/06/07 17:44:26;;;;;;;7.60;3.30;;;;;;;24.52;31.00;99774.59;79287;1298;3011590;-64
2023/06/07 17:46:54;;;;;;;6.40;2.80;;;;;;;24.39;31.38;99774.96;78089;1298;3055478;-61
2023/06/07 17:49:23;;;;;;;7.80;3.20;;;;;;;24.27;31.57;99772.97;79322;1295;3018498;-62
2023/06/07 17:51:52;;;;;;;7.30;3.30;;;;;;;24.15;31.73;99775.06;79348;1298;3012824;-64
2023/06/07 17:54:21;;;;;;;6.60;2.70;;;;;;;24.08;31.77;99778.35;78259;1298;3053047;-63
2023/06/07 17:56:48;;;;;;;5.90;2.90;;;;;;;23.97;31.90;99777.08;79296;1299;3013029;-63
2023/06/07 17:59:15;;;;;;;6.10;2.70;;;;;;;23.94;32.00;99774.67;79347;1299;3011681;-61
2023/06/07 18:01:43;;;;;;;10.70;2.40;;;;;;;23.91;31.89;99780.45;78308;1298;3056767;-65
2023/06/07 18:04:11;;;;;;;6.10;2.50;;;;;;;23.86;31.98;99781.64;79459;1298;3013372;-64
2023/06/07 18:06:39;;;;;;;4.90;3.00;;;;;;;23.82;32.30;99784.05;79442;1298;3013490;-62
2023/06/07 18:09:07;;;;;;;4.90;2.90;;;;;;;23.80;32.24;99786.08;78517;1299;3053134;-61
2023/06/07 18:11:34;;;;;;;6.80;2.60;;;;;;;23.78;32.20;99788.03;79436;1298;3013433;-63
2023/06/07 18:14:01;;;;;;;10.50;2.80;;;;;;;23.68;32.68;99783.96;79467;1295;3011591;-62
2023/06/07 18:16:29;;;;;;;5.10;2.80;;;;;;;23.65;32.87;99787.05;78115;1298;3056238;-63
2023/06/07 18:18:56;;;;;;;6.90;2.80;;;;;;;23.60;32.88;99787.55;79290;1296;3019120;-61
2023/06/07 18:21:23;;;;;;;4.20;2.50;;;;;;;23.54;32.76;99787.88;79408;1295;3011615;-64
2023/06/07 18:23:51;;;;;;;6.90;2.40;;;;;;;23.53;32.74;99790.08;78198;1299;3026377;-65
2023/06/07 18:26:18;;;;;;;5.40;2.60;;;;;;;23.49;32.72;99790.89;79611;1298;3013321;-66
2023/06/07 18:28:45;;;;;;;6.00;2.50;;;;;;;23.46;32.72;99790.83;79607;1298;3011912;-66
2023/06/07 18:31:13;;;;;;;5.20;2.40;;;;;;;23.42;32.92;99794.17;78254;1297;3057996;-64
2023/06/07 18:33:40;;;;;;;7.70;2.50;;;;;;;23.40;33.17;99793.89;79608;1295;3013343;-65
2023/06/07 18:36:06;;;;;;;5.60;2.30;;;;;;;23.36;33.20;99793.82;79660;1298;3011823;-65
2023/06/07 18:38:35;;;;;;;5.90;2.80;;;;;;;23.26;33.43;99797.88;78216;1300;3052533;-66
2023/06/07 18:41:01;;;;;;;3.60;2.50;;;;;;;23.20;33.55;99802.33;79335;1300;3013831;-66
2023/06/07 18:43:28;;;;;;;8.80;3.00;;;;;;;23.28;33.73;99808.73;79599;1298;3011832;-65